Flight Briefing for CPX715

Departure Arrival
Miami International Airport (KMIA)
Click to view FAA NOTAMS
José María Córdova International Airport (SKRG)
Click to view FAA NOTAMS
Departure Time Arrival Time
0945 UTC 1315 UTC
Aircraft Distance
B767-300BDSF 1226nm
Departure METAR Arrival METAR
KMIA 192153Z 11013KT 10SM BKN030 27/20 A3013 RMK AO2 SLP201 T02670200 SKRG 192200Z 02003KT 9000 VCSH SCT010 OVC090 19/16 A3021 RMK VCSH/SW/NW
Suggested Route
EONNS2 EONNS A509 URSUS UA301 UCA UG430 BEREX UG430 KILER UQ121 AKPEK AKPE1C


View recent IFR Routes data
Notes



Charts and Procedures

Charts for KMIA
No chart available
Charts for SKRG
No chart available

Ventusky Weather




{"cat":null,"equip":null,"transponder":null,"pbn":"PBN\/","maxpax":null,"oew":"0.0","mzfw":"0.0","mtow":"0.0","mlw":"0.0","maxfuel":"0.0"} DEVELOPMENTAL TEST USE ONLY